createdAt,value
2022-11-14T00:09:16.167Z,4.60
2022-11-14T00:24:18.029Z,4.40
2022-11-14T00:39:21.070Z,4.40
2022-11-14T00:54:23.012Z,4.40
2022-11-14T01:09:25.059Z,4.40
2022-11-14T01:24:27.049Z,4.40
2022-11-14T01:39:29.082Z,4.20
2022-11-14T01:54:35.019Z,4.20
2022-11-14T02:09:39.076Z,4.10
2022-11-14T02:24:41.526Z,4.30
2022-11-14T02:39:43.405Z,4.20
2022-11-14T02:54:48.184Z,4.20
2022-11-14T03:09:52.310Z,4.60
2022-11-14T03:24:54.206Z,4.10
2022-11-14T03:39:56.095Z,4.20
2022-11-14T03:54:58.054Z,4.60
2022-11-14T04:10:00.050Z,4.60
2022-11-14T04:25:02.022Z,4.90
2022-11-14T04:40:04.367Z,4.90
2022-11-14T04:55:06.419Z,4.90
2022-11-14T05:10:09.019Z,5.00
2022-11-14T05:25:11.454Z,5.00
2022-11-14T05:40:13.469Z,5.10
2022-11-14T05:55:16.780Z,5.10
2022-11-14T06:10:20.210Z,5.10
2022-11-14T06:25:22.049Z,5.20
2022-11-14T06:40:23.991Z,5.30
2022-11-14T06:55:26.255Z,5.10
2022-11-14T07:10:28.179Z,5.10
2022-11-14T07:25:30.138Z,5.20
2022-11-14T07:40:32.048Z,5.30
2022-11-14T07:55:36.310Z,5.50
2022-11-14T08:10:38.360Z,5.70
2022-11-14T08:25:41.689Z,5.70
2022-11-14T08:40:43.742Z,5.80
2022-11-14T08:55:46.840Z,5.80
2022-11-14T09:10:49.106Z,6.00
2022-11-14T09:25:51.168Z,6.10
2022-11-14T09:41:01.024Z,6.30
2022-11-14T09:56:02.953Z,6.20
2022-11-14T10:11:16.764Z,6.40
2022-11-14T10:26:24.684Z,6.70
2022-11-14T10:41:55.071Z,7.00
2022-11-14T10:56:53.107Z,7.00
2022-11-14T11:12:01.685Z,7.50
2022-11-14T11:27:22.658Z,7.80
2022-11-14T11:58:22.434Z,8.90
2022-11-14T12:13:43.289Z,9.40
2022-11-14T12:28:59.438Z,9.90
2022-11-14T12:44:19.887Z,10.10
2022-11-14T12:59:34.038Z,10.30
2022-11-14T13:15:09.402Z,10.50
2022-11-14T13:30:11.495Z,10.50
2022-11-14T13:45:36.136Z,10.60
2022-11-14T14:01:05.644Z,10.70
2022-11-14T14:16:28.660Z,10.70
2022-11-14T14:31:37.952Z,10.70
2022-11-14T14:46:40.060Z,10.50
2022-11-14T15:01:42.087Z,10.50
2022-11-14T15:16:46.846Z,10.40
2022-11-14T15:31:56.729Z,10.10
2022-11-14T15:47:00.357Z,10.10
2022-11-14T16:02:23.192Z,10.00
2022-11-14T16:17:25.193Z,9.70
2022-11-14T16:32:28.415Z,9.60
2022-11-14T16:47:32.127Z,9.20
2022-11-14T17:02:34.049Z,9.10
2022-11-14T17:17:36.016Z,9.20
2022-11-14T17:32:38.097Z,9.00
2022-11-14T17:47:40.086Z,8.70
2022-11-14T18:02:41.982Z,8.60
2022-11-14T18:17:43.996Z,8.50
2022-11-14T18:32:45.893Z,8.30
2022-11-14T18:47:47.968Z,8.20
2022-11-14T19:02:51.087Z,7.90
2022-11-14T19:17:53.178Z,7.80
2022-11-14T19:32:55.280Z,7.80
2022-11-14T19:47:57.223Z,7.50
2022-11-14T20:02:59.207Z,7.00
2022-11-14T20:18:01.195Z,7.00
2022-11-14T20:33:03.623Z,7.20
2022-11-14T20:48:06.097Z,7.10
2022-11-14T21:03:10.115Z,7.00
2022-11-14T21:18:12.095Z,6.60
2022-11-14T21:33:14.093Z,6.70
2022-11-14T21:48:16.132Z,6.70
2022-11-14T22:03:37.322Z,6.60
2022-11-14T22:18:39.805Z,6.60
2022-11-14T22:33:46.673Z,6.40
2022-11-14T22:48:49.847Z,6.30
2022-11-14T23:04:03.103Z,6.20
2022-11-14T23:19:05.171Z,6.30
2022-11-14T23:34:07.112Z,6.20
2022-11-14T23:49:08.971Z,6.10
